createdAt,value
2023-02-08T00:01:15.852Z,42.10
2023-02-08T00:03:44.688Z,28.85
2023-02-08T00:06:13.543Z,39.22
2023-02-08T00:08:41.206Z,31.77
2023-02-08T00:11:10.669Z,25.13
2023-02-08T00:13:41.802Z,28.98
2023-02-08T00:16:10.284Z,34.08
2023-02-08T00:18:37.300Z,37.55
2023-02-08T00:21:09.877Z,34.40
2023-02-08T00:23:37.661Z,34.70
2023-02-08T00:26:05.527Z,35.28
2023-02-08T00:28:33.480Z,27.08
2023-02-08T00:31:01.066Z,26.73
2023-02-08T00:33:28.608Z,31.80
2023-02-08T00:36:01.897Z,29.67
2023-02-08T00:38:29.698Z,26.92
2023-02-08T00:40:57.642Z,23.55
2023-02-08T00:43:24.820Z,26.67
2023-02-08T00:45:56.159Z,21.52
2023-02-08T00:48:25.698Z,27.50
2023-02-08T00:51:04.053Z,25.90
2023-02-08T00:53:31.790Z,24.23
2023-02-08T00:55:59.547Z,27.25
2023-02-08T00:58:26.700Z,28.67
2023-02-08T01:00:54.406Z,41.15
2023-02-08T01:03:22.850Z,35.58
2023-02-08T01:05:51.215Z,33.30
2023-02-08T01:08:20.493Z,28.52
2023-02-08T01:10:48.219Z,22.63
2023-02-08T01:13:15.390Z,24.10
2023-02-08T01:15:43.702Z,22.92
2023-02-08T01:18:11.194Z,27.30
2023-02-08T01:20:39.549Z,21.85
2023-02-08T01:23:06.687Z,23.35
2023-02-08T01:25:34.136Z,18.67
2023-02-08T01:28:01.229Z,21.58
2023-02-08T01:30:28.898Z,20.83
2023-02-08T01:32:56.120Z,21.75
2023-02-08T01:35:23.472Z,24.52
2023-02-08T01:37:51.125Z,21.42
2023-02-08T01:40:18.896Z,23.58
2023-02-08T01:42:45.974Z,20.77
2023-02-08T01:45:16.415Z,23.10
2023-02-08T01:47:47.123Z,22.10
2023-02-08T01:50:19.154Z,21.73
2023-02-08T01:52:46.816Z,24.73
2023-02-08T01:55:23.916Z,23.90
2023-02-08T01:57:54.945Z,22.00
2023-02-08T02:00:23.428Z,23.85
2023-02-08T02:02:53.785Z,21.58
2023-02-08T02:05:24.321Z,18.15
2023-02-08T02:07:54.888Z,25.23
2023-02-08T02:10:27.913Z,20.23
2023-02-08T02:12:58.519Z,21.38
2023-02-08T02:15:26.273Z,21.60
2023-02-08T02:17:53.755Z,21.05
2023-02-08T02:20:47.934Z,26.77
2023-02-08T02:23:15.344Z,22.75
2023-02-08T02:26:25.187Z,21.65
2023-02-08T02:29:04.209Z,27.38
2023-02-08T02:31:52.082Z,24.13
2023-02-08T02:34:45.974Z,19.40
2023-02-08T02:37:53.996Z,21.45
2023-02-08T02:40:57.350Z,20.92
2023-02-08T02:43:45.972Z,26.17
2023-02-08T02:46:32.174Z,29.23
2023-02-08T02:49:04.570Z,33.38
2023-02-08T02:51:58.322Z,29.80
2023-02-08T02:54:34.592Z,30.98
2023-02-08T02:57:07.747Z,33.53
2023-02-08T02:59:38.380Z,29.63
2023-02-08T03:02:06.545Z,28.67
2023-02-08T03:04:34.004Z,27.13
2023-02-08T03:07:20.764Z,27.65
2023-02-08T03:10:00.996Z,28.40
2023-02-08T03:13:07.592Z,24.40
2023-02-08T03:16:15.616Z,27.95
2023-02-08T03:19:06.005Z,24.75
2023-02-08T03:21:42.473Z,24.23
2023-02-08T03:24:27.909Z,18.02
2023-02-08T03:27:01.107Z,18.38
2023-02-08T03:29:38.092Z,22.20
2023-02-08T03:32:29.530Z,28.88
2023-02-08T03:35:06.243Z,31.10
2023-02-08T03:37:40.108Z,32.13
2023-02-08T03:40:20.632Z,34.58
2023-02-08T03:42:49.218Z,36.00
2023-02-08T03:45:21.737Z,33.58
2023-02-08T03:47:51.820Z,29.92
2023-02-08T03:50:21.190Z,27.33
2023-02-08T03:52:50.485Z,26.50
2023-02-08T03:55:27.583Z,32.03
2023-02-08T03:58:13.017Z,30.23
2023-02-08T04:00:44.266Z,34.08
2023-02-08T04:03:20.364Z,36.85
2023-02-08T04:05:48.158Z,30.02
2023-02-08T04:08:15.515Z,40.85
2023-02-08T04:10:43.032Z,71.25
2023-02-08T04:13:12.067Z,54.78
2023-02-08T04:15:39.673Z,41.45
2023-02-08T04:18:07.228Z,42.60
2023-02-08T04:20:34.370Z,88.95
2023-02-08T04:23:01.923Z,90.15
2023-02-08T04:25:29.020Z,78.00
2023-02-08T04:27:56.456Z,61.65
2023-02-08T04:30:23.674Z,47.13
2023-02-08T04:32:51.149Z,54.78
2023-02-08T04:35:18.274Z,69.63
2023-02-08T04:37:45.618Z,133.35
2023-02-08T04:40:12.789Z,59.38
2023-02-08T04:42:40.211Z,49.67
2023-02-08T04:45:07.648Z,75.28
2023-02-08T04:47:35.077Z,86.10
2023-02-08T04:50:02.314Z,56.10
2023-02-08T04:52:30.415Z,105.90
2023-02-08T04:54:57.702Z,117.90
2023-02-08T04:57:25.020Z,120.32
2023-02-08T04:59:52.200Z,118.88
2023-02-08T05:02:19.700Z,97.80
2023-02-08T05:04:46.798Z,74.15
2023-02-08T05:07:14.631Z,72.15
2023-02-08T05:09:43.960Z,68.07
2023-02-08T05:12:11.827Z,53.17
2023-02-08T05:14:38.964Z,54.70
2023-02-08T05:17:06.385Z,54.08
2023-02-08T05:19:34.334Z,49.88
2023-02-08T05:22:02.057Z,50.05
2023-02-08T05:24:29.579Z,44.15
2023-02-08T05:26:56.840Z,54.78
2023-02-08T05:29:23.882Z,48.75
2023-02-08T05:31:51.423Z,46.80
2023-02-08T05:34:18.982Z,44.38
2023-02-08T05:36:46.608Z,50.45
2023-02-08T05:39:13.718Z,53.97
2023-02-08T05:41:41.442Z,51.17
2023-02-08T05:44:08.694Z,52.05
2023-02-08T05:46:38.164Z,89.70
2023-02-08T05:49:06.124Z,67.60
2023-02-08T05:51:33.798Z,49.05
2023-02-08T05:54:00.827Z,47.53
2023-02-08T05:56:28.575Z,36.80
2023-02-08T05:58:55.664Z,39.08
2023-02-08T06:01:23.566Z,46.53
2023-02-08T06:03:50.864Z,45.97
2023-02-08T06:06:18.287Z,48.55
2023-02-08T06:08:45.318Z,46.25
2023-02-08T06:11:12.684Z,49.38
2023-02-08T06:13:39.748Z,46.45
2023-02-08T06:16:07.754Z,55.97
2023-02-08T06:18:34.804Z,58.75
2023-02-08T06:21:02.244Z,46.72
2023-02-08T06:23:29.666Z,47.80
2023-02-08T06:25:57.037Z,69.70
2023-02-08T06:28:24.073Z,100.03
2023-02-08T06:30:52.310Z,100.55
2023-02-08T06:33:20.068Z,72.80
2023-02-08T06:35:48.345Z,91.50
2023-02-08T06:38:15.843Z,94.35
2023-02-08T06:40:46.784Z,88.70
2023-02-08T06:43:14.857Z,155.93
2023-02-08T06:45:45.451Z,536.08
2023-02-08T06:48:13.103Z,477.15
2023-02-08T06:50:40.774Z,473.85
2023-02-08T06:53:08.445Z,396.38
2023-02-08T06:55:36.221Z,247.98
2023-02-08T06:58:03.705Z,248.68
2023-02-08T07:00:33.208Z,123.47
2023-02-08T07:03:02.754Z,119.85
2023-02-08T07:05:30.202Z,124.75
2023-02-08T07:07:57.857Z,141.63
2023-02-08T07:10:25.821Z,156.63
2023-02-08T07:12:52.987Z,256.35
2023-02-08T07:15:20.722Z,327.95
2023-02-08T07:17:49.882Z,322.67
2023-02-08T07:20:17.607Z,283.35
2023-02-08T07:22:44.643Z,190.70
2023-02-08T07:25:12.394Z,172.20
2023-02-08T07:27:39.693Z,187.70
2023-02-08T07:30:08.340Z,275.02
2023-02-08T07:32:35.603Z,478.42
2023-02-08T07:35:04.070Z,434.27
2023-02-08T07:37:33.040Z,346.50
2023-02-08T07:40:00.410Z,266.77
2023-02-08T07:42:27.501Z,180.48
2023-02-08T07:45:19.756Z,165.18
2023-02-08T07:47:46.953Z,155.00
2023-02-08T07:50:16.371Z,247.13
2023-02-08T07:52:45.996Z,211.00
2023-02-08T07:55:17.169Z,191.50
2023-02-08T07:57:45.373Z,193.55
2023-02-08T08:00:15.559Z,116.50
2023-02-08T08:02:43.140Z,94.43
2023-02-08T08:05:12.066Z,117.10
2023-02-08T08:07:39.145Z,97.00
2023-02-08T08:10:06.956Z,98.13
2023-02-08T08:12:34.103Z,185.38
2023-02-08T08:15:01.444Z,582.10
2023-02-08T08:17:29.981Z,372.75
2023-02-08T08:20:00.361Z,180.40
2023-02-08T08:22:27.450Z,127.30
2023-02-08T08:24:55.105Z,175.57
2023-02-08T08:27:23.598Z,88.95
2023-02-08T08:29:51.475Z,82.68
2023-02-08T08:32:18.521Z,80.82
2023-02-08T08:34:45.823Z,206.63
2023-02-08T08:37:12.946Z,196.30
2023-02-08T08:39:40.640Z,163.88
2023-02-08T08:42:07.732Z,129.85
2023-02-08T08:44:35.179Z,145.00
2023-02-08T08:47:02.308Z,68.00
2023-02-08T08:49:30.219Z,157.32
2023-02-08T08:51:58.190Z,177.75
2023-02-08T08:54:25.514Z,105.38
2023-02-08T08:56:52.780Z,90.05
2023-02-08T08:59:20.245Z,245.55
2023-02-08T09:01:47.438Z,130.20
2023-02-08T09:04:14.914Z,81.68
2023-02-08T09:06:42.063Z,210.27
2023-02-08T09:09:10.128Z,125.32
2023-02-08T09:11:37.649Z,148.98
2023-02-08T09:14:05.378Z,142.48
2023-02-08T09:16:32.858Z,142.68
2023-02-08T09:19:04.649Z,95.57
2023-02-08T09:21:32.088Z,105.05
2023-02-08T09:24:01.369Z,96.32
2023-02-08T09:26:32.169Z,74.45
2023-02-08T09:28:59.795Z,91.03
2023-02-08T09:31:30.149Z,50.53
2023-02-08T09:34:03.460Z,116.30
2023-02-08T09:36:34.454Z,183.02
2023-02-08T09:39:20.328Z,129.73
2023-02-08T09:42:14.731Z,66.50
2023-02-08T09:45:09.195Z,75.72
2023-02-08T09:48:00.385Z,78.22
2023-02-08T09:51:01.579Z,132.10
2023-02-08T09:53:41.350Z,122.70
2023-02-08T09:56:17.021Z,78.72
2023-02-08T09:58:46.377Z,38.35
2023-02-08T10:01:28.850Z,69.75
2023-02-08T10:04:12.258Z,84.97
2023-02-08T10:06:39.645Z,59.63
2023-02-08T10:09:10.998Z,52.38
2023-02-08T10:11:53.319Z,123.47
2023-02-08T10:14:32.773Z,68.88
2023-02-08T10:17:27.181Z,38.70
2023-02-08T10:20:10.480Z,175.55
2023-02-08T10:23:06.101Z,205.80
2023-02-08T10:25:48.333Z,96.72
2023-02-08T10:28:56.259Z,174.98
2023-02-08T10:32:00.277Z,174.93
2023-02-08T10:34:37.085Z,147.23
2023-02-08T10:37:30.184Z,83.43
2023-02-08T10:40:18.980Z,71.35
2023-02-08T10:45:25.334Z,63.17
2023-02-08T10:48:00.431Z,56.30
2023-02-08T10:50:40.661Z,70.38
2023-02-08T10:53:20.488Z,58.15
2023-02-08T10:55:50.610Z,58.97
2023-02-08T10:58:20.696Z,68.75
2023-02-08T11:00:57.619Z,154.70
2023-02-08T11:03:28.061Z,113.03
2023-02-08T11:05:57.677Z,62.00
2023-02-08T11:08:27.773Z,133.95
2023-02-08T11:11:08.851Z,123.50
2023-02-08T11:13:43.460Z,75.22
2023-02-08T11:16:13.820Z,62.78
2023-02-08T11:18:56.894Z,138.13
2023-02-08T11:21:39.036Z,65.68
2023-02-08T11:24:15.427Z,201.50
2023-02-08T11:26:49.043Z,138.02
2023-02-08T11:29:30.886Z,100.70
2023-02-08T11:32:20.065Z,97.65
2023-02-08T11:34:48.866Z,91.75
2023-02-08T11:37:30.709Z,162.15
2023-02-08T11:40:02.081Z,122.90
2023-02-08T11:42:36.614Z,157.70
2023-02-08T11:45:19.184Z,157.55
2023-02-08T11:47:50.295Z,192.13
2023-02-08T11:50:43.753Z,132.60
2023-02-08T11:53:28.030Z,99.00
2023-02-08T11:56:02.709Z,73.20
2023-02-08T12:01:05.475Z,54.17
2023-02-08T12:03:37.628Z,44.53
2023-02-08T12:06:23.058Z,71.05
2023-02-08T12:09:10.090Z,78.78
2023-02-08T12:11:45.485Z,61.97
2023-02-08T12:14:24.385Z,59.33
2023-02-08T12:17:12.444Z,59.50
2023-02-08T12:20:04.278Z,65.32
2023-02-08T12:22:31.749Z,50.72
2023-02-08T12:25:22.331Z,53.13
2023-02-08T12:28:16.699Z,63.40
2023-02-08T12:31:05.312Z,74.57
2023-02-08T12:33:57.255Z,141.48
2023-02-08T12:36:32.649Z,212.25
2023-02-08T12:39:30.252Z,159.15
2023-02-08T12:42:24.088Z,148.40
2023-02-08T12:45:15.250Z,154.15
2023-02-08T12:48:14.304Z,134.38
2023-02-08T12:51:02.417Z,55.15
2023-02-08T12:53:44.984Z,71.45
2023-02-08T12:56:23.219Z,53.83
2023-02-08T12:58:59.023Z,45.25
2023-02-08T13:01:35.724Z,50.95
2023-02-08T13:04:15.141Z,72.32
2023-02-08T13:06:52.749Z,56.20
2023-02-08T13:09:25.682Z,154.05
2023-02-08T13:11:59.938Z,216.25
2023-02-08T13:14:35.846Z,107.68
2023-02-08T13:17:28.740Z,112.10
2023-02-08T13:20:04.958Z,94.60
2023-02-08T13:22:42.471Z,104.28
2023-02-08T13:25:21.329Z,298.02
2023-02-08T13:27:48.745Z,124.60
2023-02-08T13:30:21.239Z,101.15
2023-02-08T13:32:50.722Z,231.45
2023-02-08T13:35:27.108Z,114.40
2023-02-08T13:38:18.430Z,202.95
2023-02-08T13:40:46.150Z,149.15
2023-02-08T13:43:35.991Z,155.02
2023-02-08T13:46:04.745Z,93.35
2023-02-08T13:48:46.128Z,205.93
2023-02-08T13:51:31.629Z,121.60
2023-02-08T13:53:58.671Z,136.15
2023-02-08T13:56:48.254Z,182.75
2023-02-08T13:59:35.331Z,219.40
2023-02-08T14:02:11.847Z,186.98
2023-02-08T14:04:43.412Z,178.32
2023-02-08T14:07:42.184Z,102.93
2023-02-08T14:10:34.702Z,42.72
2023-02-08T14:13:09.247Z,39.53
2023-02-08T14:15:39.582Z,50.15
2023-02-08T14:18:26.551Z,53.95
2023-02-08T14:21:02.738Z,59.25
2023-02-08T14:23:32.872Z,51.67
2023-02-08T14:26:07.549Z,27.67
2023-02-08T14:31:15.668Z,53.35
2023-02-08T14:33:53.260Z,57.70
2023-02-08T14:36:35.125Z,60.85
2023-02-08T14:39:22.817Z,55.58
2023-02-08T14:42:06.387Z,40.25
2023-02-08T14:44:41.705Z,45.50
2023-02-08T14:47:39.636Z,50.85
2023-02-08T14:50:32.555Z,54.78
2023-02-08T14:53:00.068Z,54.72
2023-02-08T14:55:32.512Z,58.25
2023-02-08T14:58:01.134Z,54.40
2023-02-08T15:00:37.839Z,53.30
2023-02-08T15:03:07.261Z,41.25
2023-02-08T15:05:44.893Z,50.38
2023-02-08T15:08:13.306Z,53.80
2023-02-08T15:10:45.167Z,47.20
2023-02-08T15:13:22.203Z,53.28
2023-02-08T15:15:54.562Z,52.45
2023-02-08T15:18:30.887Z,46.03
2023-02-08T15:21:07.301Z,39.63
2023-02-08T15:23:34.448Z,45.60
2023-02-08T15:26:22.740Z,50.95
2023-02-08T15:28:49.987Z,59.08
2023-02-08T15:31:20.508Z,108.57
2023-02-08T15:33:47.913Z,48.90
2023-02-08T15:36:25.379Z,60.03
2023-02-08T15:38:53.893Z,95.15
2023-02-08T15:41:33.966Z,77.88
2023-02-08T15:44:23.744Z,226.95
2023-02-08T15:49:30.774Z,135.98
2023-02-08T15:52:02.450Z,77.82
2023-02-08T15:54:30.830Z,62.72
2023-02-08T15:57:33.264Z,65.13
2023-02-08T16:00:01.624Z,220.90
2023-02-08T16:02:54.125Z,157.98
2023-02-08T16:05:25.446Z,69.68
2023-02-08T16:07:53.593Z,74.53
2023-02-08T16:10:33.978Z,122.18
2023-02-08T16:13:06.051Z,125.97
2023-02-08T16:15:52.046Z,134.07
2023-02-08T16:18:46.168Z,72.03
2023-02-08T16:21:21.059Z,161.43
2023-02-08T16:23:51.557Z,146.80
2023-02-08T16:26:28.713Z,96.93
2023-02-08T16:29:01.337Z,86.38
2023-02-08T16:31:31.232Z,61.40
2023-02-08T16:34:07.204Z,65.07
2023-02-08T16:36:40.709Z,50.88
2023-02-08T16:39:19.982Z,65.55
2023-02-08T16:41:54.450Z,80.00
2023-02-08T16:44:26.143Z,62.63
2023-02-08T16:46:53.272Z,60.40
2023-02-08T16:49:20.750Z,66.05
2023-02-08T16:51:53.751Z,94.82
2023-02-08T16:54:22.449Z,63.20
2023-02-08T16:56:53.704Z,61.60
2023-02-08T16:59:21.529Z,104.40
2023-02-08T17:01:50.315Z,62.30
2023-02-08T17:04:22.466Z,59.00
2023-02-08T17:06:50.101Z,69.22
2023-02-08T17:09:17.560Z,62.55
2023-02-08T17:11:44.706Z,145.32
2023-02-08T17:14:12.176Z,183.88
2023-02-08T17:16:40.511Z,139.13
2023-02-08T17:19:13.730Z,162.32
2023-02-08T17:21:40.847Z,175.57
2023-02-08T17:24:08.522Z,98.13
2023-02-08T17:26:42.661Z,147.70
2023-02-08T17:29:15.488Z,127.38
2023-02-08T17:31:42.947Z,147.27
2023-02-08T17:34:10.802Z,117.28
2023-02-08T17:36:37.955Z,99.00
2023-02-08T17:39:05.900Z,113.30
2023-02-08T17:41:33.594Z,102.18
2023-02-08T17:44:01.658Z,138.52
2023-02-08T17:46:32.716Z,168.77
2023-02-08T17:49:01.752Z,372.25
2023-02-08T17:51:29.221Z,381.08
2023-02-08T17:53:56.913Z,350.80
2023-02-08T17:56:27.492Z,285.23
2023-02-08T17:58:55.730Z,326.67
2023-02-08T18:01:26.416Z,298.17
2023-02-08T18:03:54.773Z,345.52
2023-02-08T18:06:24.920Z,389.70
2023-02-08T18:08:56.554Z,471.50
2023-02-08T18:11:24.334Z,402.15
2023-02-08T18:13:53.736Z,384.98
2023-02-08T18:16:24.378Z,518.08
2023-02-08T18:18:52.490Z,274.70
2023-02-08T18:21:22.055Z,156.05
2023-02-08T18:23:50.244Z,111.80
2023-02-08T18:26:20.535Z,240.93
2023-02-08T18:28:54.279Z,171.88
2023-02-08T18:31:21.563Z,141.95
2023-02-08T18:33:49.969Z,130.55
2023-02-08T18:36:17.804Z,133.40
2023-02-08T18:38:47.042Z,130.55
2023-02-08T18:41:18.332Z,173.10
2023-02-08T18:43:46.008Z,118.35
2023-02-08T18:46:18.670Z,89.28
2023-02-08T18:48:50.577Z,67.20
2023-02-08T18:51:19.809Z,49.22
2023-02-08T18:53:51.221Z,51.10
2023-02-08T18:56:24.224Z,47.88
2023-02-08T18:58:53.888Z,51.13
2023-02-08T19:01:23.316Z,52.67
2023-02-08T19:03:52.018Z,70.53
2023-02-08T19:06:24.990Z,68.38
2023-02-08T19:08:55.942Z,56.58
2023-02-08T19:11:25.570Z,61.45
2023-02-08T19:13:58.852Z,65.85
2023-02-08T19:18:57.338Z,56.33
2023-02-08T19:21:25.349Z,74.38
2023-02-08T19:23:53.708Z,82.50
2023-02-08T19:26:21.145Z,78.50
2023-02-08T19:28:49.491Z,96.63
2023-02-08T19:31:22.038Z,61.83
2023-02-08T19:33:58.748Z,58.42
2023-02-08T19:36:34.572Z,56.42
2023-02-08T19:39:04.307Z,70.43
2023-02-08T19:41:34.909Z,78.30
2023-02-08T19:44:05.514Z,90.00
2023-02-08T19:46:34.610Z,101.47
2023-02-08T19:49:02.451Z,113.97
2023-02-08T19:51:35.177Z,104.03
2023-02-08T19:54:05.927Z,112.43
2023-02-08T19:56:36.566Z,87.07
2023-02-08T19:59:06.481Z,132.27
2023-02-08T20:01:35.667Z,112.55
2023-02-08T20:04:06.244Z,94.22
2023-02-08T20:06:37.185Z,91.82
2023-02-08T20:09:06.565Z,105.70
2023-02-08T20:11:51.290Z,116.18
2023-02-08T20:14:24.449Z,121.60
2023-02-08T20:16:51.990Z,130.30
2023-02-08T20:19:19.719Z,190.45
2023-02-08T20:21:46.769Z,132.30
2023-02-08T20:24:14.667Z,102.10
2023-02-08T20:26:47.306Z,86.63
2023-02-08T20:29:15.823Z,95.25
2023-02-08T20:31:47.490Z,70.13
2023-02-08T20:34:16.893Z,75.88
2023-02-08T20:36:49.615Z,82.05
2023-02-08T20:39:20.750Z,78.82
2023-02-08T20:41:48.651Z,79.05
2023-02-08T20:44:17.945Z,66.68
2023-02-08T20:46:46.794Z,65.55
2023-02-08T20:49:17.543Z,75.28
2023-02-08T20:51:45.755Z,55.15
2023-02-08T20:54:15.478Z,75.53
2023-02-08T20:56:42.540Z,59.10
2023-02-08T20:59:13.735Z,58.47
2023-02-08T21:01:40.917Z,48.17
2023-02-08T21:04:08.265Z,53.45
2023-02-08T21:06:38.173Z,55.38
2023-02-08T21:09:15.144Z,71.78
2023-02-08T21:11:43.052Z,64.78
2023-02-08T21:14:18.498Z,44.13
2023-02-08T21:16:47.856Z,46.95
2023-02-08T21:19:17.175Z,54.78
2023-02-08T21:21:50.956Z,59.85
2023-02-08T21:24:18.368Z,59.33
2023-02-08T21:26:45.613Z,44.55
2023-02-08T21:29:12.919Z,51.55
2023-02-08T21:31:40.035Z,48.05
2023-02-08T21:34:07.461Z,52.53
2023-02-08T21:36:34.910Z,49.65
2023-02-08T21:39:05.481Z,52.10
2023-02-08T21:41:34.272Z,50.85
2023-02-08T21:44:03.916Z,51.33
2023-02-08T21:46:34.430Z,48.92
2023-02-08T21:49:20.502Z,51.55
2023-02-08T21:52:06.062Z,38.45
2023-02-08T21:54:46.793Z,52.78
2023-02-08T21:57:18.994Z,35.33
2023-02-08T21:59:51.835Z,54.55
2023-02-08T22:02:26.075Z,43.75
2023-02-08T22:04:55.606Z,28.15
2023-02-08T22:07:27.287Z,42.85
2023-02-08T22:09:58.550Z,43.58
2023-02-08T22:12:26.589Z,40.33
2023-02-08T22:14:53.433Z,34.55
2023-02-08T22:17:20.833Z,47.75
2023-02-08T22:19:48.219Z,41.00
2023-02-08T22:22:16.109Z,49.80
2023-02-08T22:24:43.232Z,50.25
2023-02-08T22:27:11.543Z,45.03
2023-02-08T22:29:38.571Z,56.83
2023-02-08T22:32:07.460Z,46.67
2023-02-08T22:34:36.534Z,43.40
2023-02-08T22:37:06.257Z,52.80
2023-02-08T22:39:34.207Z,43.90
2023-02-08T22:42:08.008Z,52.50
2023-02-08T22:44:36.291Z,53.58
2023-02-08T22:47:06.425Z,53.78
2023-02-08T22:49:34.625Z,39.25
2023-02-08T22:52:08.587Z,44.90
2023-02-08T22:54:36.380Z,60.45
2023-02-08T22:57:06.001Z,55.58
2023-02-08T22:59:33.657Z,66.75
2023-02-08T23:02:02.206Z,66.05
2023-02-08T23:04:31.206Z,54.60
2023-02-08T23:06:59.699Z,74.68
2023-02-08T23:09:26.814Z,62.42
2023-02-08T23:11:54.178Z,57.13
2023-02-08T23:14:21.168Z,61.22
2023-02-08T23:16:48.521Z,60.40
2023-02-08T23:19:16.925Z,49.88
2023-02-08T23:21:44.594Z,55.40
2023-02-08T23:24:11.756Z,55.58
2023-02-08T23:26:39.461Z,63.88
2023-02-08T23:29:06.480Z,56.17
2023-02-08T23:31:34.023Z,51.63
2023-02-08T23:34:01.225Z,50.35
2023-02-08T23:36:28.491Z,54.78
2023-02-08T23:38:55.455Z,46.63
2023-02-08T23:41:23.902Z,46.97
2023-02-08T23:43:52.245Z,43.28
2023-02-08T23:46:22.260Z,46.42
2023-02-08T23:48:49.908Z,52.88
2023-02-08T23:51:20.073Z,46.03
2023-02-08T23:53:50.565Z,52.70
2023-02-08T23:56:27.687Z,49.67
2023-02-08T23:58:57.438Z,59.22
